Time;durP1;ratioP1;P1;durP2;ratioP2;P2;SDS_P1;SDS_P2;PMS_P1;PMS_P2;Temp;Humidity;BMP_temperature;BMP_pressure;BME280_temperature;BME280_humidity;BME280_pressure;Samples;Min_cycle;Max_cycle;Signal;HPM_P1;HPM_P2
2021/05/19 00:01:44;;;;;;;13.55;3.30;;;;;;;13.66;66.16;101280.47;4953055;29;20058;-68
2021/05/19 00:04:12;;;;;;;14.10;3.28;;;;;;;13.70;65.90;101278.72;4935764;29;20047;-67
2021/05/19 00:06:40;;;;;;;11.15;2.83;;;;;;;13.89;64.33;101269.00;4952974;29;20430;-68
2021/05/19 00:09:10;;;;;;;11.73;2.70;;;;;;;13.83;63.94;101270.28;4952212;29;20047;-68
2021/05/19 00:11:39;;;;;;;6.97;2.65;;;;;;;13.61;64.47;101270.38;4952711;29;20051;-67
2021/05/19 00:14:09;;;;;;;10.25;3.05;;;;;;;13.73;66.22;101272.53;4952183;29;20537;-66
2021/05/19 00:16:37;;;;;;;8.82;2.70;;;;;;;13.82;64.02;101273.38;4953022;28;20047;-66
2021/05/19 00:19:04;;;;;;;6.88;2.30;;;;;;;13.88;63.45;101267.34;4952312;29;20058;-67
2021/05/19 00:21:32;;;;;;;7.25;2.20;;;;;;;13.75;63.50;101267.50;4952913;29;20055;-66
2021/05/19 00:23:59;;;;;;;8.30;2.10;;;;;;;13.93;62.84;101258.09;4951580;28;20055;-68
2021/05/19 00:26:27;;;;;;;4.47;1.60;;;;;;;13.93;62.10;101255.34;4934883;29;20059;-68
2021/05/19 00:28:55;;;;;;;10.30;2.13;;;;;;;14.05;61.92;101261.06;4934806;29;20067;-65
2021/05/19 00:31:24;;;;;;;7.65;1.90;;;;;;;14.15;61.13;101247.72;4951606;29;20047;-66
2021/05/19 00:33:52;;;;;;;7.07;1.95;;;;;;;14.04;61.35;101251.91;4934637;29;20055;-65
2021/05/19 00:36:20;;;;;;;7.43;1.92;;;;;;;14.21;61.03;101254.72;4937061;29;20055;-67
2021/05/19 00:38:47;;;;;;;5.00;1.73;;;;;;;14.26;60.91;101248.25;4938964;29;20051;-67
2021/05/19 00:41:15;;;;;;;8.45;2.03;;;;;;;13.88;61.65;101250.75;4956346;29;20403;-66
2021/05/19 00:43:42;;;;;;;9.07;2.33;;;;;;;14.04;61.65;101257.47;4939724;29;20640;-65
2021/05/19 00:46:10;;;;;;;5.95;1.85;;;;;;;14.06;61.56;101246.88;4956261;28;20051;-66
2021/05/19 00:48:38;;;;;;;7.63;1.77;;;;;;;14.23;61.35;101246.06;4939347;29;20047;-67
2021/05/19 00:51:06;;;;;;;5.32;1.75;;;;;;;14.21;61.07;101245.59;4956309;29;20055;-66
2021/05/19 00:53:34;;;;;;;9.93;1.75;;;;;;;14.15;61.48;101238.56;4938741;29;20047;-65
2021/05/19 00:56:03;;;;;;;6.30;1.67;;;;;;;14.14;61.05;101243.28;4955306;29;20620;-67
2021/05/19 00:58:33;;;;;;;4.47;1.63;;;;;;;14.17;60.98;101237.13;4954567;29;20059;-65
2021/05/19 01:01:00;;;;;;;10.53;1.90;;;;;;;13.86;61.96;101244.69;4955997;29;20058;-65
2021/05/19 01:03:32;;;;;;;8.05;1.60;;;;;;;13.95;61.64;101244.72;4955971;29;20407;-66
2021/05/19 01:06:04;;;;;;;6.63;1.58;;;;;;;14.28;61.14;101252.28;4937733;29;20055;-64
2021/05/19 01:11:24;;;;;;;10.00;2.13;;;;;;;13.74;62.57;101249.25;4955082;28;20522;-66
2021/05/19 01:13:52;;;;;;;7.35;1.95;;;;;;;14.03;61.99;101244.75;4922674;29;20399;-65
2021/05/19 01:16:19;;;;;;;8.70;1.70;;;;;;;14.00;61.60;101233.50;4954961;29;20055;-64
2021/05/19 01:18:48;;;;;;;7.05;1.67;;;;;;;13.94;61.62;101232.03;4938500;28;20055;-66
2021/05/19 01:21:16;;;;;;;4.75;1.40;;;;;;;13.78;61.63;101234.44;4955820;28;20051;-65
2021/05/19 01:23:44;;;;;;;5.35;1.67;;;;;;;13.94;61.17;101224.53;4938829;29;20070;-65
2021/05/19 01:26:13;;;;;;;4.88;1.40;;;;;;;13.74;62.26;101232.66;4937972;29;20047;-65
2021/05/19 01:28:42;;;;;;;7.68;1.70;;;;;;;13.60;62.79;101227.22;4955116;29;20055;-67
2021/05/19 01:31:13;;;;;;;7.43;2.05;;;;;;;13.96;62.02;101230.56;4939338;29;20101;-66
2021/05/19 01:33:41;;;;;;;7.60;1.75;;;;;;;13.88;62.49;101225.03;4955290;29;20060;-65
2021/05/19 01:36:09;;;;;;;6.97;1.50;;;;;;;14.21;61.48;101226.22;4954698;29;20054;-67
2021/05/19 01:38:38;;;;;;;7.50;1.67;;;;;;;14.07;61.57;101220.78;4954207;29;20051;-66
2021/05/19 01:41:05;;;;;;;5.47;1.58;;;;;;;13.98;62.41;101221.94;4954873;29;20055;-65
2021/05/19 01:43:39;;;;;;;6.18;1.98;;;;;;;13.99;62.89;101227.16;4937570;29;20062;-66
2021/05/19 01:46:37;;;;;;;9.60;1.75;;;;;;;14.10;62.32;101233.19;4946515;29;20480;-66
2021/05/19 01:49:06;;;;;;;8.68;1.83;;;;;;;13.96;62.21;101232.53;4935866;29;20145;-68
2021/05/19 01:51:38;;;;;;;7.05;1.60;;;;;;;13.95;63.97;101234.47;4918546;29;20060;-66
2021/05/19 01:54:07;;;;;;;7.78;1.40;;;;;;;13.70;63.56;101240.78;4887750;29;20055;-66
2021/05/19 01:56:38;;;;;;;6.00;1.20;;;;;;;13.87;63.59;101238.03;4935140;29;20048;-66
2021/05/19 01:59:07;;;;;;;4.00;1.30;;;;;;;14.39;63.33;101242.53;4923999;29;20398;-65
2021/05/19 02:01:35;;;;;;;5.28;1.20;;;;;;;14.01;63.65;101248.97;4922426;29;20499;-65
2021/05/19 02:04:10;;;;;;;6.55;1.10;;;;;;;13.76;62.65;101253.31;4938324;29;20051;-65
2021/05/19 02:06:55;;;;;;;3.30;0.95;;;;;;;13.30;64.62;101259.31;4948152;29;20048;-65
2021/05/19 02:09:27;;;;;;;3.95;1.20;;;;;;;13.19;65.08;101255.22;4933156;29;20051;-65
2021/05/19 02:12:00;;;;;;;4.57;1.40;;;;;;;13.10;64.86;101251.59;4938135;29;20593;-65
2021/05/19 02:14:28;;;;;;;6.80;1.40;;;;;;;13.11;66.20;101250.44;4953804;29;20043;-67
2021/05/19 02:16:56;;;;;;;4.53;1.27;;;;;;;12.77;66.62;101247.44;4953028;29;20051;-65
2021/05/19 02:19:24;;;;;;;5.82;1.50;;;;;;;13.73;67.42;101251.19;4954570;29;20070;-65
2021/05/19 02:21:56;;;;;;;6.35;1.40;;;;;;;13.59;65.16;101244.97;4921957;29;20048;-65
2021/05/19 02:24:26;;;;;;;5.32;1.52;;;;;;;12.75;68.50;101252.47;4954181;28;20047;-64
2021/05/19 02:26:55;;;;;;;8.73;2.20;;;;;;;13.19;72.08;101246.94;4937125;29;20494;-65
2021/05/19 02:29:26;;;;;;;7.13;1.70;;;;;;;13.20;69.18;101245.78;4920542;29;20055;-66
2021/05/19 02:31:55;;;;;;;6.78;2.00;;;;;;;12.61;70.90;101251.72;4921436;29;20062;-65
2021/05/19 02:34:22;;;;;;;6.50;1.45;;;;;;;11.80;74.39;101249.19;4953557;28;20047;-66
2021/05/19 02:36:53;;;;;;;4.50;1.80;;;;;;;11.53;76.11;101244.47;4937639;29;20066;-67
2021/05/19 02:39:21;;;;;;;8.88;1.90;;;;;;;11.84;75.35;101244.69;4935802;29;20055;-65
2021/05/19 02:41:55;;;;;;;8.73;2.03;;;;;;;12.04;73.88;101244.25;4954187;28;20051;-66
2021/05/19 02:44:22;;;;;;;5.32;1.58;;;;;;;11.40;77.02;101238.97;4954374;29;20052;-67
2021/05/19 02:46:50;;;;;;;6.07;1.65;;;;;;;11.54;77.81;101237.81;4953465;29;20515;-66
2021/05/19 02:49:20;;;;;;;8.02;1.73;;;;;;;11.83;76.97;101237.53;4953428;29;20047;-65
2021/05/19 02:51:47;;;;;;;6.70;2.08;;;;;;;12.12;75.67;101236.03;4954273;28;20039;-66
2021/05/19 02:54:14;;;;;;;10.13;2.35;;;;;;;12.26;75.36;101234.06;4953444;29;20052;-67
2021/05/19 02:56:42;;;;;;;6.07;1.55;;;;;;;12.27;75.04;101226.59;4953240;29;20058;-65
2021/05/19 02:59:09;;;;;;;6.13;1.63;;;;;;;12.39;74.68;101238.72;4952625;28;20058;-66
2021/05/19 03:01:37;;;;;;;5.40;1.60;;;;;;;12.53;73.64;101238.66;4920356;29;20074;-64
2021/05/19 03:04:04;;;;;;;7.70;1.83;;;;;;;12.26;74.42;101241.50;4953677;29;20066;-64
2021/05/19 03:06:32;;;;;;;4.47;1.60;;;;;;;12.75;74.36;101240.59;4936346;29;20051;-67
2021/05/19 03:08:59;;;;;;;3.42;1.27;;;;;;;12.79;73.42;101238.84;4952540;28;20055;-66
2021/05/19 03:11:26;;;;;;;3.95;1.05;;;;;;;12.54;72.06;101243.06;4935900;29;20047;-67
2021/05/19 03:13:54;;;;;;;3.10;1.20;;;;;;;12.39;72.12;101237.91;4953900;29;20051;-66
2021/05/19 03:16:22;;;;;;;4.38;1.15;;;;;;;12.20;72.51;101246.34;4953255;28;20063;-67
2021/05/19 03:18:49;;;;;;;4.50;1.20;;;;;;;12.54;72.36;101248.56;4952638;29;20055;-66
2021/05/19 03:21:17;;;;;;;4.53;1.20;;;;;;;12.39;71.97;101241.50;4953262;28;20059;-65
2021/05/19 03:23:44;;;;;;;9.13;1.60;;;;;;;12.16;73.00;101245.34;4953772;29;20054;-65
2021/05/19 03:26:12;;;;;;;5.32;1.38;;;;;;;12.42;72.64;101240.84;4953231;29;20411;-66
2021/05/19 03:28:40;;;;;;;5.93;1.00;;;;;;;12.11;73.10;101250.97;4953497;29;20051;-67
2021/05/19 03:31:08;;;;;;;7.57;1.73;;;;;;;11.92;74.52;101252.25;4952710;28;20146;-65
2021/05/19 03:33:36;;;;;;;2.88;0.93;;;;;;;11.74;75.00;101250.41;4952902;28;20414;-66
2021/05/19 03:36:05;;;;;;;3.83;1.40;;;;;;;11.91;74.59;101251.41;4952551;29;20047;-65
2021/05/19 03:38:34;;;;;;;3.72;1.05;;;;;;;11.75;74.69;101252.06;4952622;29;20054;-65
2021/05/19 03:41:04;;;;;;;5.07;1.00;;;;;;;11.85;75.00;101252.66;4919820;29;20058;-67
2021/05/19 03:43:32;;;;;;;3.13;1.13;;;;;;;11.91;74.80;101253.34;4953235;29;20048;-67
2021/05/19 03:46:00;;;;;;;4.68;1.13;;;;;;;11.67;75.74;101258.28;4952440;29;20603;-66
2021/05/19 03:48:27;;;;;;;8.25;1.30;;;;;;;11.94;75.47;101247.25;4952883;29;20062;-66
2021/05/19 03:50:55;;;;;;;2.78;1.23;;;;;;;11.98;74.62;101248.22;4920219;29;20058;-66
2021/05/19 03:53:23;;;;;;;6.07;1.20;;;;;;;11.99;74.57;101252.66;4935529;29;20066;-66
2021/05/19 03:55:50;;;;;;;5.22;1.35;;;;;;;12.11;74.76;101253.75;4952501;28;20388;-66
2021/05/19 03:58:18;;;;;;;4.00;1.10;;;;;;;12.16;76.81;101250.88;4952492;29;20051;-66
2021/05/19 04:00:45;;;;;;;4.82;1.20;;;;;;;12.07;74.34;101260.19;4953026;29;20051;-66
2021/05/19 04:03:13;;;;;;;4.60;1.20;;;;;;;11.76;74.93;101260.03;4952108;29;20062;-67
2021/05/19 04:05:41;;;;;;;7.38;1.30;;;;;;;11.80;75.13;101243.69;4935710;29;20098;-65
2021/05/19 04:08:08;;;;;;;5.20;1.30;;;;;;;11.80;75.44;101247.22;4952488;29;20047;-66
2021/05/19 04:10:36;;;;;;;3.65;1.35;;;;;;;11.79;75.21;101247.53;4953085;28;20051;-67
2021/05/19 04:13:05;;;;;;;3.67;1.17;;;;;;;12.08;74.88;101253.56;4935546;28;20741;-67
2021/05/19 04:15:34;;;;;;;5.30;1.40;;;;;;;12.12;74.55;101255.38;4951758;29;20407;-65
2021/05/19 04:18:03;;;;;;;4.95;1.17;;;;;;;12.22;74.43;101255.13;4952624;28;20049;-66
2021/05/19 04:20:36;;;;;;;7.35;1.60;;;;;;;12.21;74.82;101256.28;4936169;29;20491;-65
2021/05/19 04:23:03;;;;;;;6.55;1.58;;;;;;;12.02;75.46;101263.88;4952751;29;20074;-67
2021/05/19 04:25:34;;;;;;;7.35;1.90;;;;;;;12.25;74.71;101262.00;4952476;29;20055;-66
2021/05/19 04:28:03;;;;;;;4.78;1.50;;;;;;;12.40;73.96;101250.56;4951800;29;20055;-65
2021/05/19 04:30:30;;;;;;;4.90;1.70;;;;;;;12.59;74.11;101251.22;4951788;29;20043;-65
2021/05/19 04:32:58;;;;;;;7.45;1.42;;;;;;;12.75;73.17;101243.34;4934747;29;20055;-65
2021/05/19 04:35:26;;;;;;;6.07;1.63;;;;;;;12.70;73.30;101252.59;4935944;29;20052;-67
2021/05/19 04:37:54;;;;;;;7.40;1.73;;;;;;;12.63;73.19;101251.41;4951746;29;20051;-66
2021/05/19 04:40:21;;;;;;;3.80;1.58;;;;;;;12.73;73.17;101251.97;4935114;29;20055;-66
2021/05/19 04:42:49;;;;;;;3.95;1.50;;;;;;;12.64;73.64;101264.09;4952299;28;20051;-65
2021/05/19 04:45:16;;;;;;;3.50;1.40;;;;;;;12.55;73.90;101266.81;4935555;29;20581;-66
2021/05/19 04:47:44;;;;;;;4.28;1.23;;;;;;;12.56;73.85;101265.66;4951938;29;20058;-67
2021/05/19 04:50:15;;;;;;;6.45;1.90;;;;;;;12.56;73.92;101264.84;4951904;29;20051;-68
2021/05/19 04:52:42;;;;;;;6.63;1.77;;;;;;;12.52;74.37;101263.84;4952040;29;20059;-66
2021/05/19 04:55:10;;;;;;;4.70;1.20;;;;;;;12.56;74.08;101270.38;4952301;28;20051;-65
2021/05/19 04:57:38;;;;;;;6.68;1.48;;;;;;;12.51;73.81;101271.31;4951793;29;20083;-65
2021/05/19 05:00:07;;;;;;;6.38;1.55;;;;;;;12.54;73.57;101276.22;4952200;29;20071;-66
2021/05/19 05:02:36;;;;;;;5.40;1.65;;;;;;;12.49;73.60;101279.09;4933907;29;20052;-66
2021/05/19 05:05:10;;;;;;;5.90;1.40;;;;;;;12.73;72.83;101284.31;4952200;29;20058;-66
2021/05/19 05:07:37;;;;;;;4.72;1.52;;;;;;;12.77;72.50;101269.56;4950188;29;20063;-65
2021/05/19 05:10:10;;;;;;;8.30;1.80;;;;;;;12.66;72.71;101279.22;4951361;29;20058;-66
2021/05/19 05:12:38;;;;;;;;;;;;;;;12.77;72.32;101275.09;4947220;28;20078;-68
2021/05/19 05:15:10;;;;;;;7.28;1.73;;;;;;;12.80;72.89;101274.47;4971230;28;19922;-68
2021/05/19 05:17:38;;;;;;;6.18;1.67;;;;;;;12.94;72.64;101268.84;4958520;28;20063;-67
2021/05/19 05:20:08;;;;;;;8.85;1.65;;;;;;;13.13;71.50;101277.78;4931720;29;20399;-66
2021/05/19 05:22:36;;;;;;;7.68;2.00;;;;;;;13.13;71.81;101277.78;4935462;29;20062;-67
2021/05/19 05:25:05;;;;;;;7.00;2.42;;;;;;;12.99;71.73;101282.56;4955204;29;20071;-65
2021/05/19 05:27:33;;;;;;;7.30;2.08;;;;;;;13.21;73.07;101274.25;4937972;29;20043;-67
2021/05/19 05:30:01;;;;;;;7.88;2.50;;;;;;;12.94;71.68;101283.50;4954924;28;20051;-66
2021/05/19 05:32:28;;;;;;;7.53;2.30;;;;;;;12.71;72.69;101272.78;4937770;29;20059;-66
2021/05/19 05:34:55;;;;;;;13.38;2.08;;;;;;;12.75;72.70;101271.00;4954874;28;20059;-68
2021/05/19 05:37:24;;;;;;;11.45;2.13;;;;;;;13.00;72.39;101276.72;4954550;29;20052;-67
2021/05/19 05:39:51;;;;;;;12.25;2.67;;;;;;;13.29;72.27;101287.31;4954553;29;20047;-68
2021/05/19 05:42:19;;;;;;;8.80;2.30;;;;;;;12.90;71.95;101282.50;4938026;29;20112;-67
2021/05/19 05:44:47;;;;;;;11.07;2.55;;;;;;;12.80;71.84;101284.69;4938377;29;20082;-66
2021/05/19 05:47:14;;;;;;;7.97;1.88;;;;;;;13.51;71.17;101284.50;4937165;29;20047;-68
2021/05/19 05:49:42;;;;;;;8.50;2.17;;;;;;;13.17;73.19;101279.63;4937653;28;20399;-64
2021/05/19 05:52:09;;;;;;;9.90;2.15;;;;;;;13.09;71.01;101283.13;4954149;29;20055;-66
2021/05/19 05:54:37;;;;;;;9.50;2.60;;;;;;;13.09;72.95;101274.84;4926442;29;20052;-66
2021/05/19 05:57:05;;;;;;;8.32;2.17;;;;;;;13.60;71.63;101281.78;4936087;29;20384;-67
2021/05/19 05:59:33;;;;;;;9.77;2.22;;;;;;;13.18;71.00;101281.22;4937749;29;20051;-66
2021/05/19 06:02:01;;;;;;;10.90;2.45;;;;;;;13.10;69.99;101279.25;4954003;28;20047;-66
2021/05/19 06:04:28;;;;;;;12.35;2.85;;;;;;;13.55;71.05;101274.41;4954412;28;20047;-65
2021/05/19 06:06:55;;;;;;;8.48;2.17;;;;;;;13.43;70.06;101288.03;4954121;29;20055;-66
2021/05/19 06:09:23;;;;;;;9.57;2.30;;;;;;;13.37;69.88;101286.56;4953946;29;20062;-66
2021/05/19 06:11:51;;;;;;;7.72;2.38;;;;;;;13.73;70.45;101289.97;4936388;29;20058;-66
2021/05/19 06:14:20;;;;;;;9.25;1.98;;;;;;;13.75;68.50;101286.88;4954347;28;20050;-68
2021/05/19 06:16:47;;;;;;;8.55;2.08;;;;;;;14.22;68.37;101281.28;4936473;28;20058;-68
2021/05/19 06:19:15;;;;;;;7.78;1.63;;;;;;;14.34;68.37;101281.50;4955019;29;20062;-66
2021/05/19 06:21:44;;;;;;;10.02;1.83;;;;;;;14.28;67.90;101281.97;4936815;29;20239;-67
2021/05/19 06:24:12;;;;;;;5.10;1.40;;;;;;;14.56;66.76;101281.34;4936788;29;20047;-65
2021/05/19 06:26:40;;;;;;;8.52;2.03;;;;;;;14.18;66.68;101276.69;4965018;28;20058;-68
2021/05/19 06:29:07;;;;;;;8.30;1.85;;;;;;;13.64;67.22;101272.50;4936909;28;20067;-65
2021/05/19 06:31:35;;;;;;;9.65;2.10;;;;;;;13.88;68.19;101277.63;4953392;29;20043;-66
2021/05/19 06:34:03;;;;;;;7.28;1.70;;;;;;;13.75;67.24;101278.56;4951808;28;20085;-65
2021/05/19 06:36:30;;;;;;;6.68;1.67;;;;;;;13.98;66.83;101278.13;4952932;28;20070;-65
2021/05/19 06:39:00;;;;;;;7.68;1.80;;;;;;;14.00;67.79;101281.41;4953643;29;20059;-67
2021/05/19 06:41:28;;;;;;;7.75;2.72;;;;;;;14.23;67.91;101288.44;4937719;29;20055;-67
2021/05/19 06:43:55;;;;;;;19.35;8.95;;;;;;;14.47;66.50;101282.50;4950575;28;20078;-65
2021/05/19 06:46:25;;;;;;;8.05;1.92;;;;;;;14.67;68.72;101287.38;4953660;28;20051;-67
2021/05/19 06:48:52;;;;;;;10.90;2.05;;;;;;;14.80;65.29;101280.84;4928514;29;20052;-67
2021/05/19 06:51:20;;;;;;;7.78;1.55;;;;;;;14.95;65.53;101285.88;4949971;29;20243;-66
2021/05/19 06:53:47;;;;;;;6.78;1.48;;;;;;;14.80;66.54;101289.16;4925581;29;20047;-67
2021/05/19 06:56:18;;;;;;;10.38;2.08;;;;;;;14.90;65.97;101286.06;4953591;28;20120;-67
2021/05/19 06:58:46;;;;;;;;;;;;;;;14.96;68.25;101286.69;4937349;29;20391;-66
2021/05/19 07:01:13;;;;;;;7.75;2.08;;;;;;;15.01;66.17;101279.00;4934811;29;19922;-67
2021/05/19 07:03:41;;;;;;;14.98;2.15;;;;;;;15.12;74.16;101287.78;4953018;28;20116;-66
2021/05/19 07:06:08;;;;;;;12.95;2.92;;;;;;;15.29;70.04;101282.22;4934462;29;20059;-67
2021/05/19 07:08:35;;;;;;;8.77;1.90;;;;;;;15.05;67.58;101279.97;4947713;29;20059;-66
2021/05/19 07:11:03;;;;;;;9.20;2.13;;;;;;;14.88;68.82;101282.78;4939415;29;20574;-68
2021/05/19 07:13:30;;;;;;;13.90;2.38;;;;;;;15.12;66.16;101285.84;4952731;29;20052;-66
2021/05/19 07:16:01;;;;;;;7.93;1.58;;;;;;;15.05;66.82;101290.25;4952456;28;20055;-67
2021/05/19 07:18:30;;;;;;;9.55;2.10;;;;;;;14.74;64.48;101293.25;4952651;28;20513;-66
2021/05/19 07:20:58;;;;;;;6.97;1.60;;;;;;;15.12;67.97;101287.78;4953236;29;20051;-66
2021/05/19 07:23:25;;;;;;;7.55;3.47;;;;;;;15.26;65.66;101289.22;4952483;29;20047;-67
2021/05/19 07:25:53;;;;;;;10.05;4.60;;;;;;;15.28;66.72;101288.91;4934223;29;20047;-66
2021/05/19 07:28:20;;;;;;;9.93;1.73;;;;;;;15.12;63.88;101282.25;4921479;29;20054;-65
2021/05/19 07:30:48;;;;;;;7.03;1.90;;;;;;;15.58;64.51;101282.28;4947252;28;20063;-65
2021/05/19 07:33:19;;;;;;;8.48;2.03;;;;;;;15.17;62.21;101276.50;4933798;29;20051;-65
2021/05/19 07:35:47;;;;;;;10.63;1.60;;;;;;;15.22;63.38;101268.81;4953220;29;20384;-67
2021/05/19 07:38:15;;;;;;;5.07;1.55;;;;;;;15.23;61.57;101277.97;4952801;28;20047;-67
2021/05/19 07:40:42;;;;;;;13.35;1.67;;;;;;;15.46;64.61;101271.09;4950198;29;20047;-66
2021/05/19 07:43:09;;;;;;;16.17;1.60;;;;;;;15.36;62.13;101274.19;4933687;29;20051;-67
2021/05/19 07:45:37;;;;;;;9.23;2.22;;;;;;;15.41;61.39;101276.81;4935018;29;20074;-66
2021/05/19 07:48:04;;;;;;;7.85;1.65;;;;;;;15.38;64.90;101274.66;4920531;29;20055;-66
2021/05/19 07:50:30;;;;;;;9.07;2.45;;;;;;;15.73;67.14;101271.44;4934097;29;20052;-67
2021/05/19 07:52:56;;;;;;;7.95;1.80;;;;;;;15.89;66.58;101273.63;4935418;29;20051;-68
2021/05/19 07:55:29;;;;;;;11.73;1.90;;;;;;;16.07;64.49;101283.50;4951511;28;20046;-66
2021/05/19 07:58:04;;;;;;;10.52;1.60;;;;;;;15.73;59.50;101273.41;4949821;28;20043;-68
2021/05/19 08:02:57;;;;;;;6.07;1.63;;;;;;;15.45;61.35;101277.75;4937224;29;20055;-65
2021/05/19 08:05:23;;;;;;;14.90;1.92;;;;;;;15.41;61.74;101274.03;4947503;28;20050;-65
2021/05/19 08:07:50;;;;;;;10.27;1.95;;;;;;;15.28;63.29;101278.63;4948623;29;20043;-69
2021/05/19 08:10:16;;;;;;;9.55;1.92;;;;;;;15.21;63.49;101283.84;4935864;29;20047;-68
2021/05/19 08:12:42;;;;;;;5.05;1.48;;;;;;;15.44;63.43;101279.75;4921704;29;20039;-69
2021/05/19 08:15:09;;;;;;;8.45;2.80;;;;;;;15.29;63.24;101283.00;4948755;29;20039;-68
2021/05/19 08:17:36;;;;;;;11.23;2.72;;;;;;;15.19;63.47;101275.03;4947765;29;20132;-66
2021/05/19 08:20:04;;;;;;;9.50;1.83;;;;;;;14.90;64.64;101279.69;4948102;29;20059;-68
2021/05/19 08:22:34;;;;;;;5.75;1.35;;;;;;;15.10;63.90;101268.69;4947930;29;20047;-70
2021/05/19 08:25:02;;;;;;;8.05;1.88;;;;;;;15.17;64.36;101282.06;4937476;29;20051;-68
2021/05/19 08:27:29;;;;;;;8.15;1.50;;;;;;;15.21;65.21;101285.81;4935798;29;20057;-67
2021/05/19 08:29:57;;;;;;;9.75;1.90;;;;;;;14.87;65.81;101283.91;4947627;28;20062;-65
2021/05/19 08:32:24;;;;;;;6.88;1.50;;;;;;;14.78;66.14;101293.41;4946881;29;20359;-67
2021/05/19 08:34:52;;;;;;;8.88;1.63;;;;;;;14.23;68.03;101285.69;4947626;29;20058;-65
2021/05/19 08:37:19;;;;;;;7.60;1.40;;;;;;;14.25;68.69;101291.72;4947116;28;20282;-67
2021/05/19 08:39:48;;;;;;;10.13;1.75;;;;;;;14.56;68.49;101294.38;4945253;29;20051;-67
2021/05/19 08:42:15;;;;;;;7.95;1.77;;;;;;;14.55;68.44;101299.13;4945922;28;20054;-66
2021/05/19 08:44:44;;;;;;;12.65;1.88;;;;;;;14.27;67.93;101286.69;4947443;28;20554;-68
2021/05/19 08:47:12;;;;;;;4.75;1.10;;;;;;;13.88;67.18;101300.59;4945625;29;20051;-67
2021/05/19 08:49:44;;;;;;;5.10;0.90;;;;;;;13.23;69.59;101299.66;4951614;28;20055;-67
2021/05/19 08:52:12;;;;;;;5.03;1.17;;;;;;;13.35;71.22;101306.22;4946533;28;20642;-68
2021/05/19 08:54:39;;;;;;;6.55;1.30;;;;;;;13.27;71.71;101300.66;4932389;29;20054;-68
2021/05/19 08:57:07;;;;;;;3.85;0.90;;;;;;;13.27;70.99;101292.34;4945127;28;20505;-67
2021/05/19 08:59:37;;;;;;;3.42;0.95;;;;;;;13.41;70.13;101293.06;4946155;28;20050;-67
2021/05/19 09:02:11;;;;;;;;;;;;;;;13.41;70.18;101293.91;4937908;29;20061;-67
2021/05/19 09:04:39;;;;;;;6.88;1.17;;;;;;;13.54;68.64;101294.94;4938388;29;19941;-68
2021/05/19 09:07:08;;;;;;;3.45;1.00;;;;;;;13.89;68.73;101290.34;4924401;29;20051;-67
2021/05/19 09:09:38;;;;;;;3.22;0.70;;;;;;;13.87;66.94;101292.59;4940417;28;20070;-66
2021/05/19 09:12:11;;;;;;;3.55;0.93;;;;;;;13.46;69.86;101295.69;4921784;29;20051;-68
2021/05/19 09:14:42;;;;;;;3.83;0.90;;;;;;;13.69;69.28;101286.19;4947708;28;20058;-68
2021/05/19 09:17:25;;;;;;;2.80;0.80;;;;;;;13.54;69.34;101284.69;4949166;29;20062;-68
2021/05/19 09:20:14;;;;;;;4.63;1.30;;;;;;;14.05;68.58;101283.22;4939708;29;20059;-66
2021/05/19 09:22:46;;;;;;;4.95;1.17;;;;;;;14.46;66.51;101278.06;4950973;29;20043;-67
2021/05/19 09:25:29;;;;;;;4.70;1.00;;;;;;;14.78;65.29;101269.25;4948731;28;20062;-68
2021/05/19 09:28:00;;;;;;;6.35;1.20;;;;;;;14.70;66.61;101264.53;4948289;28;20050;-68
2021/05/19 09:30:40;;;;;;;4.38;1.10;;;;;;;14.54;66.35;101274.47;4925344;29;738719;-68
2021/05/19 09:33:18;;;;;;;4.97;1.45;;;;;;;14.83;63.58;101265.50;4922673;29;20047;-68
2021/05/19 09:36:18;;;;;;;4.15;1.13;;;;;;;14.29;65.31;101278.06;4950926;29;20062;-68
2021/05/19 09:38:51;;;;;;;4.70;1.10;;;;;;;14.46;64.53;101275.28;4952141;29;20055;-67
2021/05/19 09:41:28;;;;;;;4.10;1.25;;;;;;;14.70;64.86;101277.59;4949715;28;20062;-68
2021/05/19 09:43:58;;;;;;;4.13;1.17;;;;;;;14.82;64.57;101274.97;4939491;29;20574;-69
2021/05/19 09:46:35;;;;;;;4.35;1.58;;;;;;;15.32;63.33;101268.50;4941254;29;20042;-70
2021/05/19 09:49:18;;;;;;;5.35;0.90;;;;;;;14.98;62.36;101273.28;4940350;29;20047;-71
2021/05/19 09:51:50;;;;;;;5.78;0.88;;;;;;;15.14;62.03;101261.34;4950862;28;20059;-69
2021/05/19 09:54:24;;;;;;;4.28;1.40;;;;;;;15.24;61.64;101265.72;4940780;29;20238;-70
2021/05/19 09:56:59;;;;;;;3.92;0.73;;;;;;;15.14;59.09;101258.56;4919977;29;20050;-71
2021/05/19 09:59:27;;;;;;;1.88;0.70;;;;;;;15.35;58.24;101264.22;4951279;29;20055;-69
2021/05/19 10:01:57;;;;;;;1.88;0.40;;;;;;;15.15;57.52;101271.28;4923134;29;20058;-69
2021/05/19 10:04:30;;;;;;;1.35;0.65;;;;;;;15.32;57.58;101273.22;4940060;29;20053;-70
2021/05/19 10:06:58;;;;;;;4.22;0.93;;;;;;;15.12;58.59;101268.38;4956674;28;20062;-69
2021/05/19 10:09:27;;;;;;;7.90;2.25;;;;;;;15.03;57.35;101264.81;4951026;28;20153;-71
2021/05/19 10:11:56;;;;;;;4.80;1.55;;;;;;;15.20;58.59;101268.34;4950132;29;20063;-69
2021/05/19 10:14:25;;;;;;;2.83;1.20;;;;;;;15.42;55.51;101270.94;4950944;29;20055;-70
2021/05/19 10:17:08;;;;;;;4.55;1.52;;;;;;;15.46;56.42;101255.22;4951294;29;20048;-70
2021/05/19 10:19:54;;;;;;;3.35;1.10;;;;;;;15.59;54.53;101245.03;4952324;28;20039;-70
2021/05/19 10:22:22;;;;;;;3.60;0.70;;;;;;;15.78;53.83;101253.75;4951415;29;20058;-70
2021/05/19 10:25:19;;;;;;;3.45;1.13;;;;;;;15.45;54.75;101252.78;4941138;29;20058;-70
2021/05/19 10:27:49;;;;;;;4.20;1.00;;;;;;;15.24;56.81;101254.63;4950843;29;20059;-69
2021/05/19 10:30:46;;;;;;;2.72;0.90;;;;;;;15.29;56.22;101254.47;4956671;28;20066;-70
2021/05/19 10:33:32;;;;;;;5.35;1.10;;;;;;;15.17;56.08;101257.09;4959346;28;20091;-70
2021/05/19 10:36:01;;;;;;;3.42;0.82;;;;;;;15.33;55.43;101258.19;4956582;28;20427;-70
2021/05/19 10:38:33;;;;;;;1.67;0.60;;;;;;;15.04;54.63;101260.88;4935473;28;20391;-71
2021/05/19 10:41:05;;;;;;;4.45;1.25;;;;;;;14.89;56.68;101259.44;4939128;28;20058;-70
2021/05/19 10:43:48;;;;;;;3.17;0.93;;;;;;;15.37;55.82;101254.44;4923689;28;20050;-70
2021/05/19 10:46:52;;;;;;;4.10;0.98;;;;;;;15.67;55.93;101258.88;4953826;28;20046;-72
2021/05/19 10:49:20;;;;;;;2.35;0.77;;;;;;;15.61;53.74;101249.13;4924384;28;20047;-71
2021/05/19 10:52:16;;;;;;;3.65;1.13;;;;;;;15.60;53.13;101258.59;4938195;28;20604;-70
2021/05/19 10:57:57;;;;;;;3.10;0.70;;;;;;;15.30;52.89;101262.44;4954612;28;20050;-70
2021/05/19 11:00:31;;;;;;;3.25;1.00;;;;;;;15.57;52.96;101253.72;4959736;28;20054;-70
2021/05/19 11:03:02;;;;;;;2.72;0.70;;;;;;;15.71;50.74;101254.28;4938718;28;20055;-72
2021/05/19 11:05:35;;;;;;;3.85;0.90;;;;;;;15.20;52.63;101264.78;4925714;28;20047;-71
2021/05/19 11:08:10;;;;;;;4.20;1.10;;;;;;;15.54;52.21;101265.50;4956056;28;20047;-71
2021/05/19 11:10:39;;;;;;;4.53;1.00;;;;;;;15.22;53.93;101257.72;4959797;28;20063;-72
2021/05/19 11:13:08;;;;;;;4.53;0.85;;;;;;;15.27;54.09;101270.63;4951349;28;20058;-71
2021/05/19 11:15:36;;;;;;;2.78;0.80;;;;;;;14.79;54.38;101270.06;4959418;28;20047;-71
2021/05/19 11:21:19;;;;;;;5.97;1.00;;;;;;;15.11;54.77;101284.22;4869034;29;20058;-71
2021/05/19 11:24:14;;;;;;;3.97;1.35;;;;;;;14.00;62.21;101338.75;4869218;29;20049;-71
2021/05/19 11:26:46;;;;;;;7.47;1.35;;;;;;;13.33;68.89;101354.72;4868407;29;20156;-70
2021/05/19 11:29:15;;;;;;;4.13;1.30;;;;;;;12.82;71.61;101337.72;4852086;29;20060;-71
2021/05/19 11:31:47;;;;;;;4.90;1.38;;;;;;;13.10;72.63;101322.69;4839540;29;20057;-73
2021/05/19 11:34:18;;;;;;;5.60;1.10;;;;;;;13.67;70.08;101316.16;4868713;29;20061;-71
2021/05/19 11:36:49;;;;;;;5.10;1.25;;;;;;;13.79;69.85;101321.09;4869166;29;20632;-72
2021/05/19 11:39:35;;;;;;;10.05;1.30;;;;;;;13.36;71.07;101318.94;4860688;29;20056;-70
2021/05/19 11:42:33;;;;;;;6.22;1.25;;;;;;;12.89;72.50;101319.56;4864590;29;20060;-69
2021/05/19 11:45:07;;;;;;;10.05;2.13;;;;;;;13.22;72.42;101311.84;4872410;29;20063;-71
2021/05/19 11:47:36;;;;;;;7.10;1.50;;;;;;;13.47;71.91;101309.25;4857086;29;20045;-69
2021/05/19 11:50:18;;;;;;;10.48;1.80;;;;;;;13.78;71.97;101311.13;4860548;29;20049;-69